sensor_id;sensor_type;location;lat;lon;timestamp;pressure;altitude;pressure_sealevel;temperature;humidity
64362;BME280;50685;53.346;-6.296;2023-02-04T02:33:56;103271.34;;;9.61;70.56
64362;BME280;50685;53.346;-6.296;2023-02-04T02:36:22;103266.91;;;9.60;70.68
64362;BME280;50685;53.346;-6.296;2023-02-04T02:38:47;103267.78;;;9.61;70.65
64362;BME280;50685;53.346;-6.296;2023-02-04T02:41:13;103274.81;;;9.59;70.25
64362;BME280;50685;53.346;-6.296;2023-02-04T02:43:38;103281.00;;;9.59;70.52
64362;BME280;50685;53.346;-6.296;2023-02-04T02:46:03;103278.34;;;9.59;70.61
64362;BME280;50685;53.346;-6.296;2023-02-04T02:48:29;103275.66;;;9.58;70.49
64362;BME280;50685;53.346;-6.296;2023-02-04T02:50:54;103260.59;;;9.57;70.72
64362;BME280;50685;53.346;-6.296;2023-02-04T02:53:20;103272.09;;;9.57;70.62
64362;BME280;50685;53.346;-6.296;2023-02-04T02:55:46;103267.59;;;9.55;70.56
64362;BME280;50685;53.346;-6.296;2023-02-04T03:42:48;103248.50;;;9.38;67.74
64362;BME280;50685;53.346;-6.296;2023-02-04T03:45:14;103247.63;;;9.37;67.10
64362;BME280;50685;53.346;-6.296;2023-02-04T03:47:39;103255.56;;;9.37;67.17
64362;BME280;50685;53.346;-6.296;2023-02-04T03:50:04;103251.16;;;9.38;67.30
64362;BME280;50685;53.346;-6.296;2023-02-04T03:52:30;103243.22;;;9.38;67.58
64362;BME280;50685;53.346;-6.296;2023-02-04T03:54:55;103254.69;;;9.37;67.58
64362;BME280;50685;53.346;-6.296;2023-02-04T04:33:32;103227.13;;;9.31;67.45
64362;BME280;50685;53.346;-6.296;2023-02-04T04:35:57;103233.31;;;9.30;67.48
64362;BME280;50685;53.346;-6.296;2023-02-04T04:38:23;103236.81;;;9.29;67.60
64362;BME280;50685;53.346;-6.296;2023-02-04T04:40:48;103235.84;;;9.27;67.80
64362;BME280;50685;53.346;-6.296;2023-02-04T04:43:13;103241.09;;;9.26;67.93
64362;BME280;50685;53.346;-6.296;2023-02-04T04:45:39;103238.34;;;9.23;68.17
64362;BME280;50685;53.346;-6.296;2023-02-04T04:48:04;103244.44;;;9.20;68.31
64362;BME280;50685;53.346;-6.296;2023-02-04T04:50:29;103242.69;;;9.21;68.25
64362;BME280;50685;53.346;-6.296;2023-02-04T04:52:55;103239.13;;;9.20;68.24
64362;BME280;50685;53.346;-6.296;2023-02-04T04:55:20;103239.97;;;9.19;68.32
64362;BME280;50685;53.346;-6.296;2023-02-04T05:00:21;103247.91;;;9.19;68.30
64362;BME280;50685;53.346;-6.296;2023-02-04T05:02:46;103248.84;;;9.20;68.48
64362;BME280;50685;53.346;-6.296;2023-02-04T05:05:12;103246.22;;;9.21;68.30
64362;BME280;50685;53.346;-6.296;2023-02-04T05:07:37;103248.84;;;9.20;68.35
64362;BME280;50685;53.346;-6.296;2023-02-04T05:10:03;103248.72;;;9.16;68.62
64362;BME280;50685;53.346;-6.296;2023-02-04T05:12:29;103244.22;;;9.14;68.66
64362;BME280;50685;53.346;-6.296;2023-02-04T05:14:54;103249.53;;;9.14;68.86
64362;BME280;50685;53.346;-6.296;2023-02-04T05:17:19;103258.31;;;9.13;68.98
64362;BME280;50685;53.346;-6.296;2023-02-04T05:19:45;103259.22;;;9.13;68.71
64362;BME280;50685;53.346;-6.296;2023-02-04T05:22:10;103261.84;;;9.12;68.53
64362;BME280;50685;53.346;-6.296;2023-02-04T05:24:35;103253.03;;;9.13;68.46
64362;BME280;50685;53.346;-6.296;2023-02-04T05:27:01;103261.88;;;9.13;68.49
64362;BME280;50685;53.346;-6.296;2023-02-04T05:29:26;103261.03;;;9.14;68.50
64362;BME280;50685;53.346;-6.296;2023-02-04T05:31:51;103265.41;;;9.14;68.56
64362;BME280;50685;53.346;-6.296;2023-02-04T05:34:17;103272.47;;;9.13;68.51
64362;BME280;50685;53.346;-6.296;2023-02-04T05:36:42;103263.59;;;9.13;68.60
64362;BME280;50685;53.346;-6.296;2023-02-04T05:39:07;103261.03;;;9.14;68.45
64362;BME280;50685;53.346;-6.296;2023-02-04T05:41:33;103261.84;;;9.12;68.46
64362;BME280;50685;53.346;-6.296;2023-02-04T05:43:58;103258.31;;;9.13;68.74
64362;BME280;50685;53.346;-6.296;2023-02-04T05:46:23;103251.25;;;9.12;68.63
64362;BME280;50685;53.346;-6.296;2023-02-04T05:48:52;103253.94;;;9.13;68.36
64362;BME280;50685;53.346;-6.296;2023-02-04T05:51:17;103242.44;;;9.13;68.29
64362;BME280;50685;53.346;-6.296;2023-02-04T05:53:42;103242.44;;;9.13;68.46
64362;BME280;50685;53.346;-6.296;2023-02-04T06:25:36;103233.66;;;9.14;68.66
64362;BME280;50685;53.346;-6.296;2023-02-04T06:28:02;103246.03;;;9.15;68.64
64362;BME280;50685;53.346;-6.296;2023-02-04T06:30:27;103239.78;;;9.13;68.57
64362;BME280;50685;53.346;-6.296;2023-02-04T06:32:52;103235.44;;;9.15;68.67
64362;BME280;50685;53.346;-6.296;2023-02-04T06:35:18;103235.44;;;9.15;68.63
64362;BME280;50685;53.346;-6.296;2023-02-04T06:37:43;103229.25;;;9.14;68.66
64362;BME280;50685;53.346;-6.296;2023-02-04T06:40:09;103234.56;;;9.14;68.68
64362;BME280;50685;53.346;-6.296;2023-02-04T06:42:34;103232.78;;;9.15;68.75
64362;BME280;50685;53.346;-6.296;2023-02-04T06:45:00;103236.34;;;9.15;68.92
64362;BME280;50685;53.346;-6.296;2023-02-04T06:47:25;103231.91;;;9.14;69.15
64362;BME280;50685;53.346;-6.296;2023-02-04T06:49:50;103232.84;;;9.16;69.13
64362;BME280;50685;53.346;-6.296;2023-02-04T06:52:15;103243.44;;;9.16;69.06
64362;BME280;50685;53.346;-6.296;2023-02-04T06:54:41;103244.34;;;9.17;69.35
64362;BME280;50685;53.346;-6.296;2023-02-04T06:59:41;103244.34;;;9.17;69.38
64362;BME280;50685;53.346;-6.296;2023-02-04T07:02:11;103243.38;;;9.15;69.56
64362;BME280;50685;53.346;-6.296;2023-02-04T07:04:37;103240.78;;;9.16;69.71
64362;BME280;50685;53.346;-6.296;2023-02-04T07:07:02;103244.34;;;9.17;69.67
64362;BME280;50685;53.346;-6.296;2023-02-04T07:09:27;103243.44;;;9.16;69.59
64362;BME280;50685;53.346;-6.296;2023-02-04T07:11:53;103243.38;;;9.15;69.68
64362;BME280;50685;53.346;-6.296;2023-02-04T07:14:18;103239.06;;;9.17;69.71
64362;BME280;50685;53.346;-6.296;2023-02-04T07:16:44;103237.25;;;9.16;69.63
64362;BME280;50685;53.346;-6.296;2023-02-04T07:19:09;103230.16;;;9.15;69.76
64362;BME280;50685;53.346;-6.296;2023-02-04T07:21:34;103229.31;;;9.16;69.87
64362;BME280;50685;53.346;-6.296;2023-02-04T07:24:00;103227.53;;;9.16;69.81
64362;BME280;50685;53.346;-6.296;2023-02-04T07:26:25;103231.03;;;9.15;70.11
64362;BME280;50685;53.346;-6.296;2023-02-04T07:28:50;103225.75;;;9.15;70.07
64362;BME280;50685;53.346;-6.296;2023-02-04T07:31:16;103223.16;;;9.17;70.15
64362;BME280;50685;53.346;-6.296;2023-02-04T07:33:41;103222.31;;;9.18;70.25
64362;BME280;50685;53.346;-6.296;2023-02-04T07:36:07;103235.56;;;9.18;69.98
64362;BME280;50685;53.346;-6.296;2023-02-04T07:38:32;103231.16;;;9.19;70.07
64362;BME280;50685;53.346;-6.296;2023-02-04T07:40:58;103227.66;;;9.20;70.06
64362;BME280;50685;53.346;-6.296;2023-02-04T07:43:23;103228.50;;;9.19;69.80
64362;BME280;50685;53.346;-6.296;2023-02-04T07:45:48;103230.34;;;9.21;69.96
64362;BME280;50685;53.346;-6.296;2023-02-04T07:48:14;103236.53;;;9.22;69.85
64362;BME280;50685;53.346;-6.296;2023-02-04T07:50:39;103224.22;;;9.22;69.70
64362;BME280;50685;53.346;-6.296;2023-02-04T07:53:04;103227.75;;;9.23;69.74
64362;BME280;50685;53.346;-6.296;2023-02-04T07:55:30;103236.66;;;9.25;69.64
64362;BME280;50685;53.346;-6.296;2023-02-04T08:00:31;103237.50;;;9.24;69.82
64362;BME280;50685;53.346;-6.296;2023-02-04T08:02:56;103237.53;;;9.25;69.77
64362;BME280;50685;53.346;-6.296;2023-02-04T08:05:21;103243.69;;;9.24;69.85
64362;BME280;50685;53.346;-6.296;2023-02-04T08:07:47;103243.75;;;9.26;70.08
64362;BME280;50685;53.346;-6.296;2023-02-04T08:10:12;103257.88;;;9.26;70.12
64362;BME280;50685;53.346;-6.296;2023-02-04T08:12:37;103250.88;;;9.28;70.19
64362;BME280;50685;53.346;-6.296;2023-02-04T08:15:03;103258.81;;;9.28;70.35
64362;BME280;50685;53.346;-6.296;2023-02-04T08:17:28;103256.22;;;9.30;70.12
64362;BME280;50685;53.346;-6.296;2023-02-04T08:19:57;103259.78;;;9.30;70.18
64362;BME280;50685;53.346;-6.296;2023-02-04T08:22:22;103264.16;;;9.30;70.55
64362;BME280;50685;53.346;-6.296;2023-02-04T08:24:48;103265.13;;;9.32;70.51
64362;BME280;50685;53.346;-6.296;2023-02-04T08:27:13;103265.97;;;9.31;70.72
64362;BME280;50685;53.346;-6.296;2023-02-04T08:29:38;103268.63;;;9.31;71.25
64362;BME280;50685;53.346;-6.296;2023-02-04T08:32:04;103265.00;;;9.29;71.58
64362;BME280;50685;53.346;-6.296;2023-02-04T08:34:30;103265.00;;;9.29;71.78
64362;BME280;50685;53.346;-6.296;2023-02-04T08:36:55;103258.78;;;9.27;72.38
64362;BME280;50685;53.346;-6.296;2023-02-04T08:39:20;103261.44;;;9.27;72.55
64362;BME280;50685;53.346;-6.296;2023-02-04T08:41:46;103264.97;;;9.27;72.61
64362;BME280;50685;53.346;-6.296;2023-02-04T08:44:13;103262.31;;;9.27;72.74
64362;BME280;50685;53.346;-6.296;2023-02-04T08:46:38;103269.41;;;9.28;72.67
64362;BME280;50685;53.346;-6.296;2023-02-04T08:49:03;103272.06;;;9.28;73.04
64362;BME280;50685;53.346;-6.296;2023-02-04T08:51:29;103273.84;;;9.28;73.24
64362;BME280;50685;53.346;-6.296;2023-02-04T08:53:54;103281.78;;;9.28;73.50
64362;BME280;50685;53.346;-6.296;2023-02-04T09:01:30;103300.25;;;9.26;74.36
64362;BME280;50685;53.346;-6.296;2023-02-04T09:03:55;103304.53;;;9.23;75.70
64362;BME280;50685;53.346;-6.296;2023-02-04T09:06:20;103300.78;;;9.16;75.92
64362;BME280;50685;53.346;-6.296;2023-02-04T09:08:46;103306.03;;;9.14;76.27
64362;BME280;50685;53.346;-6.296;2023-02-04T09:11:11;103309.53;;;9.13;76.35
64362;BME280;50685;53.346;-6.296;2023-02-04T09:13:37;103307.78;;;9.14;76.60
64362;BME280;50685;53.346;-6.296;2023-02-04T09:16:02;103313.97;;;9.14;76.73
64362;BME280;50685;53.346;-6.296;2023-02-04T09:18:28;103320.22;;;9.16;76.85
64362;BME280;50685;53.346;-6.296;2023-02-04T09:20:54;103319.31;;;9.16;76.57
64362;BME280;50685;53.346;-6.296;2023-02-04T09:23:20;103328.28;;;9.20;76.50
64362;BME280;50685;53.346;-6.296;2023-02-04T09:25:47;103315.06;;;9.21;76.44
64362;BME280;50685;53.346;-6.296;2023-02-04T09:28:12;103319.56;;;9.24;76.23
64362;BME280;50685;53.346;-6.296;2023-02-04T09:30:38;103318.78;;;9.26;76.38
64362;BME280;50685;53.346;-6.296;2023-02-04T09:33:04;103319.63;;;9.25;76.04
64362;BME280;50685;53.346;-6.296;2023-02-04T09:35:29;103320.53;;;9.26;75.86
64362;BME280;50685;53.346;-6.296;2023-02-04T09:37:55;103318.94;;;9.31;75.80
64362;BME280;50685;53.346;-6.296;2023-02-04T09:40:20;103313.75;;;9.34;75.64
64362;BME280;50685;53.346;-6.296;2023-02-04T09:42:47;103307.75;;;9.40;75.32
64362;BME280;50685;53.346;-6.296;2023-02-04T09:45:21;103309.50;;;9.39;74.93
64362;BME280;50685;53.346;-6.296;2023-02-04T09:47:48;103317.53;;;9.42;74.85
64362;BME280;50685;53.346;-6.296;2023-02-04T09:50:15;103321.19;;;9.46;74.90
64362;BME280;50685;53.346;-6.296;2023-02-04T09:52:40;103316.09;;;9.52;74.76
64362;BME280;50685;53.346;-6.296;2023-02-04T09:55:16;103314.44;;;9.56;74.45
64362;BME280;50685;53.346;-6.296;2023-02-04T10:00:18;103313.72;;;9.60;74.43
64362;BME280;50685;53.346;-6.296;2023-02-04T10:02:44;103310.97;;;9.58;74.28
64362;BME280;50685;53.346;-6.296;2023-02-04T10:05:14;103311.81;;;9.57;74.37
64362;BME280;50685;53.346;-6.296;2023-02-04T10:07:39;103315.41;;;9.58;74.57
64362;BME280;50685;53.346;-6.296;2023-02-04T10:10:05;103318.03;;;9.58;74.35
64362;BME280;50685;53.346;-6.296;2023-02-04T10:12:31;103313.72;;;9.60;74.57
64362;BME280;50685;53.346;-6.296;2023-02-04T10:14:56;103311.97;;;9.62;74.27
64362;BME280;50685;53.346;-6.296;2023-02-04T10:17:22;103305.88;;;9.64;74.32
64362;BME280;50685;53.346;-6.296;2023-02-04T10:19:50;103306.00;;;9.68;74.37
64362;BME280;50685;53.346;-6.296;2023-02-04T10:22:17;103314.09;;;9.72;74.10
64362;BME280;50685;53.346;-6.296;2023-02-04T10:24:43;103305.38;;;9.76;74.23
64362;BME280;50685;53.346;-6.296;2023-02-04T10:27:09;103320.38;;;9.76;74.21
64362;BME280;50685;53.346;-6.296;2023-02-04T10:29:35;103324.91;;;9.80;74.01
64362;BME280;50685;53.346;-6.296;2023-02-04T10:32:01;103319.63;;;9.80;73.58
64362;BME280;50685;53.346;-6.296;2023-02-04T10:34:33;103334.84;;;9.86;73.71
64362;BME280;50685;53.346;-6.296;2023-02-04T10:37:10;103328.72;;;9.88;74.21
64362;BME280;50685;53.346;-6.296;2023-02-04T10:39:40;103332.22;;;9.87;74.30
64362;BME280;50685;53.346;-6.296;2023-02-04T10:42:06;103330.44;;;9.88;74.59
64362;BME280;50685;53.346;-6.296;2023-02-04T10:44:32;103334.94;;;9.90;74.37
64362;BME280;50685;53.346;-6.296;2023-02-04T10:47:04;103329.75;;;9.93;74.54
64362;BME280;50685;53.346;-6.296;2023-02-04T10:49:30;103326.19;;;9.93;74.88
64362;BME280;50685;53.346;-6.296;2023-02-04T10:51:55;103319.19;;;9.95;74.90
64362;BME280;50685;53.346;-6.296;2023-02-04T10:54:23;103322.84;;;9.99;74.32
64362;BME280;50685;53.346;-6.296;2023-02-04T11:07:58;103325.41;;;10.26;72.94
64362;BME280;50685;53.346;-6.296;2023-02-04T11:10:27;103325.50;;;10.29;72.94
64362;BME280;50685;53.346;-6.296;2023-02-04T11:18:03;103329.53;;;10.45;72.73
64362;BME280;50685;53.346;-6.296;2023-02-04T11:20:30;103330.56;;;10.50;72.72
64362;BME280;50685;53.346;-6.296;2023-02-04T11:22:55;103321.63;;;10.47;72.72
64362;BME280;50685;53.346;-6.296;2023-02-04T11:25:33;103328.78;;;10.49;72.82
64362;BME280;50685;53.346;-6.296;2023-02-04T11:27:59;103322.72;;;10.53;72.78
64362;BME280;50685;53.346;-6.296;2023-02-04T11:30:31;103336.72;;;10.49;72.15
64362;BME280;50685;53.346;-6.296;2023-02-04T11:33:04;103320.91;;;10.52;72.20
64362;BME280;50685;53.346;-6.296;2023-02-04T11:35:30;103328.09;;;10.56;71.82
64362;BME280;50685;53.346;-6.296;2023-02-04T11:37:56;103328.25;;;10.63;71.33
64362;BME280;50685;53.346;-6.296;2023-02-04T11:42:47;103317.91;;;10.72;71.19
64362;BME280;50685;53.346;-6.296;2023-02-04T11:47:38;103317.59;;;10.93;70.09
64362;BME280;50685;53.346;-6.296;2023-02-04T11:50:09;103323.03;;;10.98;69.92
64362;BME280;50685;53.346;-6.296;2023-02-04T11:52:36;103322.28;;;11.03;69.47
64362;BME280;50685;53.346;-6.296;2023-02-04T11:55:01;103320.53;;;11.04;69.32
64362;BME280;50685;53.346;-6.296;2023-02-04T12:10:50;103292.63;;;11.58;67.80
64362;BME280;50685;53.346;-6.296;2023-02-04T12:13:23;103298.09;;;11.64;67.79
64362;BME280;50685;53.346;-6.296;2023-02-04T12:16:02;103294.59;;;11.67;67.31
64362;BME280;50685;53.346;-6.296;2023-02-04T12:18:28;103293.31;;;11.89;67.29
64362;BME280;50685;53.346;-6.296;2023-02-04T12:20:59;103296.38;;;12.06;66.25
64362;BME280;50685;53.346;-6.296;2023-02-04T12:23:26;103276.78;;;12.01;66.52
64362;BME280;50685;53.346;-6.296;2023-02-04T12:25:51;103295.22;;;11.95;66.92
64362;BME280;50685;53.346;-6.296;2023-02-04T12:28:17;103288.97;;;11.93;66.67
64362;BME280;50685;53.346;-6.296;2023-02-04T12:30:45;103271.03;;;11.82;66.71
64362;BME280;50685;53.346;-6.296;2023-02-04T12:33:11;103276.28;;;11.81;67.18
64362;BME280;50685;53.346;-6.296;2023-02-04T12:35:36;103289.59;;;11.81;67.42
64362;BME280;50685;53.346;-6.296;2023-02-04T12:38:01;103289.56;;;11.79;67.74
64362;BME280;50685;53.346;-6.296;2023-02-04T12:40:27;103299.47;;;11.86;67.38
64362;BME280;50685;53.346;-6.296;2023-02-04T12:42:52;103306.72;;;11.94;66.99
64362;BME280;50685;53.346;-6.296;2023-02-04T12:45:17;103302.66;;;12.08;66.80
64362;BME280;50685;53.346;-6.296;2023-02-04T12:47:43;103307.06;;;12.09;66.16
64362;BME280;50685;53.346;-6.296;2023-02-04T12:50:09;103301.97;;;12.18;65.86
64362;BME280;50685;53.346;-6.296;2023-02-04T12:52:35;103302.09;;;12.25;65.62
64362;BME280;50685;53.346;-6.296;2023-02-04T12:55:01;103311.78;;;12.23;65.61
64362;BME280;50685;53.346;-6.296;2023-02-04T13:02:39;103311.38;;;12.93;62.81
64362;BME280;50685;53.346;-6.296;2023-02-04T13:05:04;103312.47;;;13.04;62.78
64362;BME280;50685;53.346;-6.296;2023-02-04T13:07:30;103309.94;;;13.12;61.82
64362;BME280;50685;53.346;-6.296;2023-02-04T13:09:55;103306.69;;;13.30;62.19
64362;BME280;50685;53.346;-6.296;2023-02-04T13:12:21;103317.28;;;13.27;60.71
64362;BME280;50685;53.346;-6.296;2023-02-04T13:14:47;103302.16;;;13.26;60.95
64362;BME280;50685;53.346;-6.296;2023-02-04T13:17:12;103306.53;;;13.19;61.08
64362;BME280;50685;53.346;-6.296;2023-02-04T13:19:38;103319.66;;;13.08;60.79
64362;BME280;50685;53.346;-6.296;2023-02-04T13:22:03;103318.81;;;13.12;60.99
64362;BME280;50685;53.346;-6.296;2023-02-04T13:24:29;103300.41;;;13.26;60.76
64362;BME280;50685;53.346;-6.296;2023-02-04T13:26:54;103289.53;;;13.68;60.08
64362;BME280;50685;53.346;-6.296;2023-02-04T13:29:19;103284.31;;;13.77;59.39
64362;BME280;50685;53.346;-6.296;2023-02-04T13:31:46;103287.50;;;13.49;59.32
64362;BME280;50685;53.346;-6.296;2023-02-04T13:34:11;103284.44;;;13.28;59.97
64362;BME280;50685;53.346;-6.296;2023-02-04T13:36:37;103294.03;;;13.16;60.43
64362;BME280;50685;53.346;-6.296;2023-02-04T13:39:05;103297.78;;;13.29;60.79
64362;BME280;50685;53.346;-6.296;2023-02-04T13:41:30;103297.22;;;13.46;60.12
64362;BME280;50685;53.346;-6.296;2023-02-04T13:43:56;103280.19;;;13.38;59.88
64362;BME280;50685;53.346;-6.296;2023-02-04T13:46:22;103272.66;;;13.12;60.62
64362;BME280;50685;53.346;-6.296;2023-02-04T13:48:48;103290.06;;;12.93;61.41
64362;BME280;50685;53.346;-6.296;2023-02-04T13:51:14;103279.88;;;12.68;62.27
64362;BME280;50685;53.346;-6.296;2023-02-04T13:53:40;103278.81;;;12.59;63.01
64362;BME280;50685;53.346;-6.296;2023-02-04T13:56:06;103276.81;;;12.48;63.36
64362;BME280;50685;53.346;-6.296;2023-02-04T14:12:35;103289.84;;;12.33;64.17
64362;BME280;50685;53.346;-6.296;2023-02-04T14:15:00;103291.50;;;12.28;64.13
64362;BME280;50685;53.346;-6.296;2023-02-04T14:17:26;103297.00;;;12.35;64.62
64362;BME280;50685;53.346;-6.296;2023-02-04T14:19:51;103298.81;;;12.38;64.42
64362;BME280;50685;53.346;-6.296;2023-02-04T14:22:16;103302.59;;;12.49;64.08
64362;BME280;50685;53.346;-6.296;2023-02-04T14:24:42;103305.56;;;12.65;63.62
64362;BME280;50685;53.346;-6.296;2023-02-04T14:27:08;103293.38;;;12.79;62.93
64362;BME280;50685;53.346;-6.296;2023-02-04T14:29:34;103299.66;;;12.83;62.58
64362;BME280;50685;53.346;-6.296;2023-02-04T14:31:59;103309.28;;;12.75;62.58
64362;BME280;50685;53.346;-6.296;2023-02-04T14:34:25;103325.19;;;12.72;63.15
64362;BME280;50685;53.346;-6.296;2023-02-04T14:36:50;103310.91;;;12.68;63.23
64362;BME280;50685;53.346;-6.296;2023-02-04T14:39:15;103308.94;;;12.56;64.22
64362;BME280;50685;53.346;-6.296;2023-02-04T14:41:41;103311.50;;;12.51;64.37
64362;BME280;50685;53.346;-6.296;2023-02-04T14:44:06;103316.88;;;12.54;64.88
64362;BME280;50685;53.346;-6.296;2023-02-04T14:46:46;103335.44;;;12.50;65.16
64362;BME280;50685;53.346;-6.296;2023-02-04T14:49:13;103327.13;;;12.34;65.69
64362;BME280;50685;53.346;-6.296;2023-02-04T14:51:41;103331.59;;;12.35;66.55
64362;BME280;50685;53.346;-6.296;2023-02-04T14:54:07;103328.69;;;12.25;67.51
64362;BME280;50685;53.346;-6.296;2023-02-04T14:59:06;103353.50;;;11.84;70.76
64362;BME280;50685;53.346;-6.296;2023-02-04T15:01:36;103347.09;;;11.77;71.58
64362;BME280;50685;53.346;-6.296;2023-02-04T15:04:02;103352.25;;;11.69;72.61
64362;BME280;50685;53.346;-6.296;2023-02-04T15:06:35;103373.66;;;11.76;72.44
64362;BME280;50685;53.346;-6.296;2023-02-04T15:09:01;103366.44;;;11.70;73.29
64362;BME280;50685;53.346;-6.296;2023-02-04T15:11:26;103388.47;;;11.64;74.14
64362;BME280;50685;53.346;-6.296;2023-02-04T15:13:52;103388.34;;;11.60;74.56
64362;BME280;50685;53.346;-6.296;2023-02-04T15:36:29;103448.88;;;11.04;81.40
64362;BME280;50685;53.346;-6.296;2023-02-04T16:00:06;103522.75;;;10.31;91.37
64362;BME280;50685;53.346;-6.296;2023-02-04T16:02:35;103538.56;;;10.28;91.28
64362;BME280;50685;53.346;-6.296;2023-02-04T16:05:15;103556.03;;;10.21;89.87
64362;BME280;50685;53.346;-6.296;2023-02-04T16:10:16;103574.91;;;10.05;87.30
64362;BME280;50685;53.346;-6.296;2023-02-04T16:12:42;103605.47;;;9.93;86.76
64362;BME280;50685;53.346;-6.296;2023-02-04T16:15:07;103608.25;;;9.72;82.22
64362;BME280;50685;53.346;-6.296;2023-02-04T16:17:35;103624.31;;;9.53;81.76
64362;BME280;50685;53.346;-6.296;2023-02-04T16:20:01;103649.44;;;9.40;81.04
64362;BME280;50685;53.346;-6.296;2023-02-04T16:22:27;103657.03;;;9.30;81.04
64362;BME280;50685;53.346;-6.296;2023-02-04T16:24:53;103662.56;;;9.14;80.54
64362;BME280;50685;53.346;-6.296;2023-02-04T16:27:26;103683.44;;;9.06;80.68
64362;BME280;50685;53.346;-6.296;2023-02-04T16:29:51;103685.84;;;9.00;80.11
64362;BME280;50685;53.346;-6.296;2023-02-04T16:32:21;103691.66;;;8.91;79.67
64362;BME280;50685;53.346;-6.296;2023-02-04T16:34:50;103688.03;;;8.89;80.01
64362;BME280;50685;53.346;-6.296;2023-02-04T16:37:19;103694.94;;;8.86;79.60
64362;BME280;50685;53.346;-6.296;2023-02-04T16:39:48;103706.16;;;8.80;80.11
64362;BME280;50685;53.346;-6.296;2023-02-04T16:42:15;103701.03;;;8.83;80.58
64362;BME280;50685;53.346;-6.296;2023-02-04T16:44:43;103715.94;;;8.81;79.77
64362;BME280;50685;53.346;-6.296;2023-02-04T16:47:09;103721.94;;;8.77;79.70
64362;BME280;50685;53.346;-6.296;2023-02-04T16:49:35;103729.63;;;8.71;79.11
64362;BME280;50685;53.346;-6.296;2023-02-04T16:52:00;103732.91;;;8.65;79.38
64362;BME280;50685;53.346;-6.296;2023-02-04T16:54:28;103750.38;;;8.61;79.17
64362;BME280;50685;53.346;-6.296;2023-02-04T17:07:15;103773.50;;;8.65;79.01
64362;BME280;50685;53.346;-6.296;2023-02-04T17:09:40;103780.66;;;8.68;78.88
64362;BME280;50685;53.346;-6.296;2023-02-04T17:12:06;103795.78;;;8.71;78.54
64362;BME280;50685;53.346;-6.296;2023-02-04T17:14:31;103801.91;;;8.70;78.82
64362;BME280;50685;53.346;-6.296;2023-02-04T17:16:57;103803.75;;;8.72;78.82
64362;BME280;50685;53.346;-6.296;2023-02-04T17:19:22;103808.06;;;8.70;78.60
64362;BME280;50685;53.346;-6.296;2023-02-04T17:21:47;103802.72;;;8.68;78.62
64362;BME280;50685;53.346;-6.296;2023-02-04T17:24:13;103812.47;;;8.70;78.34
64362;BME280;50685;53.346;-6.296;2023-02-04T17:26:38;103820.34;;;8.68;78.87
64362;BME280;50685;53.346;-6.296;2023-02-04T17:31:32;103833.31;;;8.62;79.50
64362;BME280;50685;53.346;-6.296;2023-02-04T17:33:58;103842.16;;;8.62;79.35
64362;BME280;50685;53.346;-6.296;2023-02-04T17:36:23;103851.91;;;8.63;79.72
64362;BME280;50685;53.346;-6.296;2023-02-04T17:38:49;103857.06;;;8.60;80.03
64362;BME280;50685;53.346;-6.296;2023-02-04T17:41:14;103856.75;;;8.54;80.22
64362;BME280;50685;53.346;-6.296;2023-02-04T17:43:40;103875.28;;;8.54;80.59
64362;BME280;50685;53.346;-6.296;2023-02-04T17:46:05;103876.03;;;8.51;80.11
64362;BME280;50685;53.346;-6.296;2023-02-04T17:48:30;103875.91;;;8.48;80.25
64362;BME280;50685;53.346;-6.296;2023-02-04T17:50:56;103889.22;;;8.50;80.09
64362;BME280;50685;53.346;-6.296;2023-02-04T17:53:21;103880.44;;;8.51;80.53
64362;BME280;50685;53.346;-6.296;2023-02-04T17:55:47;103872.44;;;8.49;79.63
64362;BME280;50685;53.346;-6.296;2023-02-04T22:28:02;104208.84;;;4.68;86.88
64362;BME280;50685;53.346;-6.296;2023-02-04T22:30:27;104219.75;;;4.61;86.33
64362;BME280;50685;53.346;-6.296;2023-02-04T22:32:53;104235.44;;;4.59;86.77
64362;BME280;50685;53.346;-6.296;2023-02-04T22:35:19;104244.34;;;4.61;86.75
64362;BME280;50685;53.346;-6.296;2023-02-04T22:37:45;104247.75;;;4.60;85.99
64362;BME280;50685;53.346;-6.296;2023-02-04T22:40:10;104250.41;;;4.60;86.15
64362;BME280;50685;53.346;-6.296;2023-02-04T22:42:36;104247.66;;;4.59;86.21
64362;BME280;50685;53.346;-6.296;2023-02-04T22:45:01;104252.59;;;4.54;86.16
64362;BME280;50685;53.346;-6.296;2023-02-04T22:47:28;104262.94;;;4.51;85.92
64362;BME280;50685;53.346;-6.296;2023-02-04T22:49:53;104271.28;;;4.45;86.16
64362;BME280;50685;53.346;-6.296;2023-02-04T22:52:18;104304.66;;;4.46;86.05
64362;BME280;50685;53.346;-6.296;2023-02-04T22:54:43;104320.44;;;4.46;85.23
64362;BME280;50685;53.346;-6.296;2023-02-04T23:40:22;104391.50;;;3.99;85.96
64362;BME280;50685;53.346;-6.296;2023-02-04T23:42:48;104380.78;;;3.96;86.13
64362;BME280;50685;53.346;-6.296;2023-02-04T23:45:13;104374.63;;;3.95;86.20
64362;BME280;50685;53.346;-6.296;2023-02-04T23:47:39;104362.97;;;3.92;86.48
64362;BME280;50685;53.346;-6.296;2023-02-04T23:50:04;104353.84;;;3.86;86.38
64362;BME280;50685;53.346;-6.296;2023-02-04T23:52:29;104355.59;;;3.86;86.22
64362;BME280;50685;53.346;-6.296;2023-02-04T23:54:55;104339.47;;;3.81;86.18
